Terminal Aerodrome Forecast
Issued by NWS

Home | Current Version | Previous Version | Text Only | Print | Product List | Glossary On
Versions: 1 2 3 4 5 6 7 8 9 10 11 12 13 14 15
000
FTAK31 PANC 191133
TAFAVD
TAF
PAVD 191133Z 1912/2012 02011KT P6SM OVC100
     FM191500 07004KT P6SM VCSH SCT040 BKN060
     FM191800 VRB04KT 4SM -SN BR FEW015 OVC035
     FM200100 06009KT P6SM FEW030 OVC045
     FM200900 08011G20KT P6SM SKC
      AMD LTD TO CLD VIS AND WIND=

USA.gov is the U.S. government's official web portal to all federal, state and local government web resources and services.